Ann Arbor, MI (48103)

10:13 PM EST on February 12, 2016 (GMT -0500)
Polo Fields | | Change Station
CLOSE
Current Station
Personal Weather Station
Location: Ann Arbor, MI
Elevation: 912 ft
Nearby Weather Stations

Elev 912 ft 42.27 °N, 83.82 °W | Updated 12 seconds ago

Overcast
Overcast
8.2 °F
Feels Like -4 °F
N
8.3
Wind Variable Wind from North
Gusts 13.0 mph

Today
High -- | Low -- °F
--% Chance of Precip.
Yesterday
High -- | Low -- °F
Precip. -- in
Pressure 30.21 in
Visibility 5.0 miles
Clouds Overcast 2400 ft
Windchill -4 °F
Dew Point 3 °F
Humidity 78%
Rainfall 0.12 in
Snow Depth Not available.
7:36 AM 6:03 PM
Waxing Crescent, 26% visible
METAR KARB 130253Z AUTO 36017G21KT 5SM -SN OVC024 M12/M17 A3016 RMK AO2 SLP230 P0000 60000 T11171167 53039 TSNO
Pressure 30.21 in
Visibility 5.0 miles
Clouds Overcast 2400 ft
Windchill -4 °F
Dew Point 3 °F
Humidity 78%
Rainfall 0.12 in
Snow Depth Not available.
7:36 AM 6:03 PM
Waxing Crescent, 26% visible
METAR KARB 130253Z AUTO 36017G21KT 5SM -SN OVC024 M12/M17 A3016 RMK AO2 SLP230 P0000 60000 T11171167 53039 TSNO

10-Day Weather Forecast

Almanac

Astronomy

Feb. 12, 2016 Rise Set
Actual Time
Civil Twilight
Nautical Twilight
Astronomical Twilight
Moon
Length of Visible Light
Length of Day
Tomorrow will be .
, % of the Moon is Illuminated

Today's Extremes

State Highs State Lows

Community

WunderPhotos

Upload Photos

1,892,480 photos uploaded!

WunderBlog® & News

Nearby

Air Quality

  Air Quality AQ Index Pollutant
Not available.

Snow Depth

Station Depth Elevation

Earthquake Activity

City Distance Mag. Time & Date
Minimum magnitude displayed is 2.5.

Coastal Water Temperatures

Place Temperature

Stations

Nearby Weather Stations

Station Location Temp. Windchill Dew Point Humidity Wind Precip. Elev Updated Type
                   

Watches & Warnings

There are currently no watches in effect.